sensor_id;sensor_type;location;lat;lon;timestamp;temperature;humidity
2439;DHT22;14509;47.992;7.848;2023-02-15T00:01:49;6.50;55.90
2439;DHT22;14509;47.992;7.848;2023-02-15T00:03:51;6.70;55.80
2439;DHT22;14509;47.992;7.848;2023-02-15T00:05:53;6.60;55.60
2439;DHT22;14509;47.992;7.848;2023-02-15T00:07:57;6.60;55.70
2439;DHT22;14509;47.992;7.848;2023-02-15T00:09:59;6.30;55.20
2439;DHT22;14509;47.992;7.848;2023-02-15T00:12:01;6.30;55.20
2439;DHT22;14509;47.992;7.848;2023-02-15T00:14:04;6.20;55.20
2439;DHT22;14509;47.992;7.848;2023-02-15T00:16:07;6.20;55.30
2439;DHT22;14509;47.992;7.848;2023-02-15T00:18:09;6.60;55.40
2439;DHT22;14509;47.992;7.848;2023-02-15T00:20:10;6.10;54.80
2439;DHT22;14509;47.992;7.848;2023-02-15T00:22:12;5.90;54.50
2439;DHT22;14509;47.992;7.848;2023-02-15T00:24:15;5.80;54.50
2439;DHT22;14509;47.992;7.848;2023-02-15T00:26:17;5.60;54.80
2439;DHT22;14509;47.992;7.848;2023-02-15T00:28:19;5.90;55.30
2439;DHT22;14509;47.992;7.848;2023-02-15T00:30:22;5.50;55.40
2439;DHT22;14509;47.992;7.848;2023-02-15T00:32:23;5.80;55.80
2439;DHT22;14509;47.992;7.848;2023-02-15T00:34:26;5.50;56.10
2439;DHT22;14509;47.992;7.848;2023-02-15T00:36:28;5.50;55.70
2439;DHT22;14509;47.992;7.848;2023-02-15T00:38:30;5.40;55.50
2439;DHT22;14509;47.992;7.848;2023-02-15T00:40:32;5.40;55.60
2439;DHT22;14509;47.992;7.848;2023-02-15T00:42:33;5.40;55.40
2439;DHT22;14509;47.992;7.848;2023-02-15T00:44:35;5.40;55.10
2439;DHT22;14509;47.992;7.848;2023-02-15T00:46:38;5.30;55.20
2439;DHT22;14509;47.992;7.848;2023-02-15T00:48:43;5.40;55.30
2439;DHT22;14509;47.992;7.848;2023-02-15T00:50:45;5.50;55.30
2439;DHT22;14509;47.992;7.848;2023-02-15T00:52:47;5.30;55.30
2439;DHT22;14509;47.992;7.848;2023-02-15T00:54:49;5.20;55.30
2439;DHT22;14509;47.992;7.848;2023-02-15T00:56:50;5.20;55.30
2439;DHT22;14509;47.992;7.848;2023-02-15T00:58:52;5.30;55.40
2439;DHT22;14509;47.992;7.848;2023-02-15T01:00:54;5.30;55.30
2439;DHT22;14509;47.992;7.848;2023-02-15T01:02:59;5.30;55.30
2439;DHT22;14509;47.992;7.848;2023-02-15T01:05:00;5.30;55.50
2439;DHT22;14509;47.992;7.848;2023-02-15T01:07:02;5.40;55.50
2439;DHT22;14509;47.992;7.848;2023-02-15T01:09:07;5.40;55.50
2439;DHT22;14509;47.992;7.848;2023-02-15T01:11:11;5.40;55.40
2439;DHT22;14509;47.992;7.848;2023-02-15T01:13:14;5.40;55.30
2439;DHT22;14509;47.992;7.848;2023-02-15T01:15:16;5.40;55.20
2439;DHT22;14509;47.992;7.848;2023-02-15T01:17:23;5.30;55.00
2439;DHT22;14509;47.992;7.848;2023-02-15T01:19:26;5.20;55.00
2439;DHT22;14509;47.992;7.848;2023-02-15T01:21:28;5.10;54.90
2439;DHT22;14509;47.992;7.848;2023-02-15T01:23:30;5.00;54.80
2439;DHT22;14509;47.992;7.848;2023-02-15T01:25:32;5.00;54.90
2439;DHT22;14509;47.992;7.848;2023-02-15T01:27:34;4.90;55.20
2439;DHT22;14509;47.992;7.848;2023-02-15T01:29:35;4.90;55.30
2439;DHT22;14509;47.992;7.848;2023-02-15T01:31:37;4.90;55.60
2439;DHT22;14509;47.992;7.848;2023-02-15T01:33:41;5.00;55.80
2439;DHT22;14509;47.992;7.848;2023-02-15T01:35:45;5.00;56.00
2439;DHT22;14509;47.992;7.848;2023-02-15T01:37:47;5.10;56.20
2439;DHT22;14509;47.992;7.848;2023-02-15T01:39:49;5.20;56.10
2439;DHT22;14509;47.992;7.848;2023-02-15T01:41:52;6.40;57.00
2439;DHT22;14509;47.992;7.848;2023-02-15T01:43:54;5.60;56.40
2439;DHT22;14509;47.992;7.848;2023-02-15T01:45:56;5.50;56.30
2439;DHT22;14509;47.992;7.848;2023-02-15T01:47:59;5.60;56.10
2439;DHT22;14509;47.992;7.848;2023-02-15T01:50:06;5.70;56.00
2439;DHT22;14509;47.992;7.848;2023-02-15T01:52:11;5.80;55.80
2439;DHT22;14509;47.992;7.848;2023-02-15T01:54:15;5.80;55.40
2439;DHT22;14509;47.992;7.848;2023-02-15T01:56:19;5.90;55.20
2439;DHT22;14509;47.992;7.848;2023-02-15T01:58:23;5.90;55.10
2439;DHT22;14509;47.992;7.848;2023-02-15T02:00:26;5.90;55.10
2439;DHT22;14509;47.992;7.848;2023-02-15T02:02:28;5.90;55.00
2439;DHT22;14509;47.992;7.848;2023-02-15T02:04:31;6.00;55.20
2439;DHT22;14509;47.992;7.848;2023-02-15T02:06:35;6.00;55.20
2439;DHT22;14509;47.992;7.848;2023-02-15T02:08:47;6.00;55.20
2439;DHT22;14509;47.992;7.848;2023-02-15T02:10:49;6.00;55.20
2439;DHT22;14509;47.992;7.848;2023-02-15T02:12:51;6.00;55.10
2439;DHT22;14509;47.992;7.848;2023-02-15T02:14:54;6.10;55.10
2439;DHT22;14509;47.992;7.848;2023-02-15T02:16:57;6.60;55.50
2439;DHT22;14509;47.992;7.848;2023-02-15T02:19:09;6.10;55.20
2439;DHT22;14509;47.992;7.848;2023-02-15T02:21:41;6.10;55.20
2439;DHT22;14509;47.992;7.848;2023-02-15T02:23:53;6.20;55.20
2439;DHT22;14509;47.992;7.848;2023-02-15T02:26:03;6.20;55.20
2439;DHT22;14509;47.992;7.848;2023-02-15T02:28:14;6.10;55.00
2439;DHT22;14509;47.992;7.848;2023-02-15T02:32:50;6.10;55.10
2439;DHT22;14509;47.992;7.848;2023-02-15T02:34:54;6.10;55.20
2439;DHT22;14509;47.992;7.848;2023-02-15T02:36:58;6.10;55.30
2439;DHT22;14509;47.992;7.848;2023-02-15T02:39:10;6.10;55.30
2439;DHT22;14509;47.992;7.848;2023-02-15T02:41:16;6.10;55.40
2439;DHT22;14509;47.992;7.848;2023-02-15T02:43:20;6.10;55.60
2439;DHT22;14509;47.992;7.848;2023-02-15T02:45:24;6.10;55.60
2439;DHT22;14509;47.992;7.848;2023-02-15T02:47:29;6.70;56.00
2439;DHT22;14509;47.992;7.848;2023-02-15T02:49:33;6.10;55.60
2439;DHT22;14509;47.992;7.848;2023-02-15T02:51:35;6.20;55.70
2439;DHT22;14509;47.992;7.848;2023-02-15T02:53:37;6.20;55.60
2439;DHT22;14509;47.992;7.848;2023-02-15T02:55:40;6.10;55.60
2439;DHT22;14509;47.992;7.848;2023-02-15T02:57:46;6.20;55.70
2439;DHT22;14509;47.992;7.848;2023-02-15T02:59:49;6.20;55.70
2439;DHT22;14509;47.992;7.848;2023-02-15T03:01:53;6.20;55.60
2439;DHT22;14509;47.992;7.848;2023-02-15T03:03:58;6.20;55.40
2439;DHT22;14509;47.992;7.848;2023-02-15T03:06:04;6.20;55.20
2439;DHT22;14509;47.992;7.848;2023-02-15T03:08:07;6.10;55.00
2439;DHT22;14509;47.992;7.848;2023-02-15T03:10:10;6.00;54.90
2439;DHT22;14509;47.992;7.848;2023-02-15T03:12:13;6.00;54.70
2439;DHT22;14509;47.992;7.848;2023-02-15T03:14:19;5.70;54.60
2439;DHT22;14509;47.992;7.848;2023-02-15T03:16:21;6.00;54.90
2439;DHT22;14509;47.992;7.848;2023-02-15T03:18:29;5.60;54.80
2439;DHT22;14509;47.992;7.848;2023-02-15T03:20:33;5.50;55.00
2439;DHT22;14509;47.992;7.848;2023-02-15T03:22:39;5.50;55.10
2439;DHT22;14509;47.992;7.848;2023-02-15T03:24:46;5.50;55.20
2439;DHT22;14509;47.992;7.848;2023-02-15T03:26:50;5.70;55.50
2439;DHT22;14509;47.992;7.848;2023-02-15T03:28:53;5.70;55.70
2439;DHT22;14509;47.992;7.848;2023-02-15T03:30:58;5.50;55.50
2439;DHT22;14509;47.992;7.848;2023-02-15T03:33:01;5.60;55.40
2439;DHT22;14509;47.992;7.848;2023-02-15T03:35:04;5.60;55.40
2439;DHT22;14509;47.992;7.848;2023-02-15T03:37:09;5.60;55.30
2439;DHT22;14509;47.992;7.848;2023-02-15T03:39:15;5.70;55.40
2439;DHT22;14509;47.992;7.848;2023-02-15T03:41:19;5.70;55.40
2439;DHT22;14509;47.992;7.848;2023-02-15T03:43:28;6.80;56.30
2439;DHT22;14509;47.992;7.848;2023-02-15T03:45:31;5.70;55.50
2439;DHT22;14509;47.992;7.848;2023-02-15T03:47:35;5.70;55.40
2439;DHT22;14509;47.992;7.848;2023-02-15T03:49:39;5.70;55.40
2439;DHT22;14509;47.992;7.848;2023-02-15T03:51:44;5.70;55.50
2439;DHT22;14509;47.992;7.848;2023-02-15T03:53:46;6.10;55.70
2439;DHT22;14509;47.992;7.848;2023-02-15T03:55:52;5.60;55.40
2439;DHT22;14509;47.992;7.848;2023-02-15T03:57:55;5.60;55.40
2439;DHT22;14509;47.992;7.848;2023-02-15T04:00:15;5.60;55.50
2439;DHT22;14509;47.992;7.848;2023-02-15T04:02:36;5.60;55.60
2439;DHT22;14509;47.992;7.848;2023-02-15T04:04:39;5.50;55.70
2439;DHT22;14509;47.992;7.848;2023-02-15T04:06:42;5.50;55.80
2439;DHT22;14509;47.992;7.848;2023-02-15T04:08:44;5.50;55.80
2439;DHT22;14509;47.992;7.848;2023-02-15T04:11:05;5.50;55.80
2439;DHT22;14509;47.992;7.848;2023-02-15T04:13:06;5.40;55.60
2439;DHT22;14509;47.992;7.848;2023-02-15T04:15:11;5.40;55.70
2439;DHT22;14509;47.992;7.848;2023-02-15T04:17:30;5.40;55.80
2439;DHT22;14509;47.992;7.848;2023-02-15T04:19:32;5.40;55.90
2439;DHT22;14509;47.992;7.848;2023-02-15T04:21:52;5.40;55.90
2439;DHT22;14509;47.992;7.848;2023-02-15T04:24:11;5.40;55.90
2439;DHT22;14509;47.992;7.848;2023-02-15T04:26:32;5.40;56.70
2439;DHT22;14509;47.992;7.848;2023-02-15T04:28:33;5.40;56.10
2439;DHT22;14509;47.992;7.848;2023-02-15T04:30:35;5.40;56.10
2439;DHT22;14509;47.992;7.848;2023-02-15T04:32:37;5.60;56.30
2439;DHT22;14509;47.992;7.848;2023-02-15T04:34:38;5.40;56.00
2439;DHT22;14509;47.992;7.848;2023-02-15T04:36:40;5.40;55.90
2439;DHT22;14509;47.992;7.848;2023-02-15T04:38:42;5.40;56.00
2439;DHT22;14509;47.992;7.848;2023-02-15T04:40:44;5.50;56.10
2439;DHT22;14509;47.992;7.848;2023-02-15T04:42:48;5.50;56.00
2439;DHT22;14509;47.992;7.848;2023-02-15T04:44:50;5.40;56.10
2439;DHT22;14509;47.992;7.848;2023-02-15T04:46:52;5.40;56.00
2439;DHT22;14509;47.992;7.848;2023-02-15T04:48:53;5.40;56.10
2439;DHT22;14509;47.992;7.848;2023-02-15T04:50:55;5.50;56.20
2439;DHT22;14509;47.992;7.848;2023-02-15T04:52:57;6.20;56.80
2439;DHT22;14509;47.992;7.848;2023-02-15T04:54:58;5.50;56.20
2439;DHT22;14509;47.992;7.848;2023-02-15T04:57:00;5.50;56.10
2439;DHT22;14509;47.992;7.848;2023-02-15T04:59:03;5.50;56.40
2439;DHT22;14509;47.992;7.848;2023-02-15T05:01:05;5.50;56.30
2439;DHT22;14509;47.992;7.848;2023-02-15T05:03:07;5.60;56.30
2439;DHT22;14509;47.992;7.848;2023-02-15T05:05:08;5.60;56.30
2439;DHT22;14509;47.992;7.848;2023-02-15T05:07:13;5.60;56.40
2439;DHT22;14509;47.992;7.848;2023-02-15T05:09:18;5.60;56.20
2439;DHT22;14509;47.992;7.848;2023-02-15T05:11:20;5.60;56.20
2439;DHT22;14509;47.992;7.848;2023-02-15T05:13:22;5.70;56.30
2439;DHT22;14509;47.992;7.848;2023-02-15T05:15:25;5.70;57.00
2439;DHT22;14509;47.992;7.848;2023-02-15T05:17:27;5.70;56.30
2439;DHT22;14509;47.992;7.848;2023-02-15T05:19:29;5.70;56.20
2439;DHT22;14509;47.992;7.848;2023-02-15T05:21:31;5.70;56.10
2439;DHT22;14509;47.992;7.848;2023-02-15T05:23:33;5.70;56.10
2439;DHT22;14509;47.992;7.848;2023-02-15T05:25:35;5.70;55.90
2439;DHT22;14509;47.992;7.848;2023-02-15T05:27:54;5.60;55.80
2439;DHT22;14509;47.992;7.848;2023-02-15T05:30:13;5.60;55.70
2439;DHT22;14509;47.992;7.848;2023-02-15T05:32:16;5.60;56.30
2439;DHT22;14509;47.992;7.848;2023-02-15T05:34:18;5.50;55.50
2439;DHT22;14509;47.992;7.848;2023-02-15T05:36:20;5.50;55.30
2439;DHT22;14509;47.992;7.848;2023-02-15T05:38:21;5.40;55.10
2439;DHT22;14509;47.992;7.848;2023-02-15T05:40:23;5.40;55.10
2439;DHT22;14509;47.992;7.848;2023-02-15T05:42:25;5.30;55.00
2439;DHT22;14509;47.992;7.848;2023-02-15T05:44:27;5.20;55.00
2439;DHT22;14509;47.992;7.848;2023-02-15T05:46:28;5.20;55.10
2439;DHT22;14509;47.992;7.848;2023-02-15T05:48:31;5.20;55.20
2439;DHT22;14509;47.992;7.848;2023-02-15T05:50:33;5.10;55.20
2439;DHT22;14509;47.992;7.848;2023-02-15T05:52:35;5.10;55.10
2439;DHT22;14509;47.992;7.848;2023-02-15T05:54:37;5.00;55.10
2439;DHT22;14509;47.992;7.848;2023-02-15T05:56:38;5.00;55.10
2439;DHT22;14509;47.992;7.848;2023-02-15T05:58:41;5.00;55.10
2439;DHT22;14509;47.992;7.848;2023-02-15T06:00:42;5.00;55.20
2439;DHT22;14509;47.992;7.848;2023-02-15T06:02:44;5.00;55.10
2439;DHT22;14509;47.992;7.848;2023-02-15T06:04:47;5.00;55.10
2439;DHT22;14509;47.992;7.848;2023-02-15T06:54:24;4.40;55.20
2439;DHT22;14509;47.992;7.848;2023-02-15T06:56:25;4.40;55.30
2439;DHT22;14509;47.992;7.848;2023-02-15T06:58:29;4.40;55.30
2439;DHT22;14509;47.992;7.848;2023-02-15T07:00:31;4.50;55.50
2439;DHT22;14509;47.992;7.848;2023-02-15T07:02:33;4.80;55.60
2439;DHT22;14509;47.992;7.848;2023-02-15T07:04:35;4.50;55.50
2439;DHT22;14509;47.992;7.848;2023-02-15T09:00:56;7.70;50.80
2439;DHT22;14509;47.992;7.848;2023-02-15T09:02:58;7.80;50.50
2439;DHT22;14509;47.992;7.848;2023-02-15T09:05:00;7.90;50.50
2439;DHT22;14509;47.992;7.848;2023-02-15T09:07:13;8.00;50.40
2439;DHT22;14509;47.992;7.848;2023-02-15T09:09:18;8.10;50.50
2439;DHT22;14509;47.992;7.848;2023-02-15T09:11:22;8.20;50.40
2439;DHT22;14509;47.992;7.848;2023-02-15T09:13:24;8.30;49.90
2439;DHT22;14509;47.992;7.848;2023-02-15T09:15:26;8.40;49.40
2439;DHT22;14509;47.992;7.848;2023-02-15T09:17:30;8.40;49.40
2439;DHT22;14509;47.992;7.848;2023-02-15T09:19:32;8.50;49.20
2439;DHT22;14509;47.992;7.848;2023-02-15T09:24:19;8.60;49.00
2439;DHT22;14509;47.992;7.848;2023-02-15T09:26:21;8.60;48.70
2439;DHT22;14509;47.992;7.848;2023-02-15T09:28:24;8.90;49.20
2439;DHT22;14509;47.992;7.848;2023-02-15T09:30:26;8.70;49.20
2439;DHT22;14509;47.992;7.848;2023-02-15T09:32:35;8.50;48.70
2439;DHT22;14509;47.992;7.848;2023-02-15T09:34:45;8.90;48.50
2439;DHT22;14509;47.992;7.848;2023-02-15T09:36:49;8.90;48.00
2439;DHT22;14509;47.992;7.848;2023-02-15T09:39:04;8.60;47.70
2439;DHT22;14509;47.992;7.848;2023-02-15T09:41:19;9.00;48.10
2439;DHT22;14509;47.992;7.848;2023-02-15T09:43:28;8.90;48.30
2439;DHT22;14509;47.992;7.848;2023-02-15T09:45:37;8.90;48.30
2439;DHT22;14509;47.992;7.848;2023-02-15T09:47:52;8.90;48.10
2439;DHT22;14509;47.992;7.848;2023-02-15T09:50:09;8.90;48.30
2439;DHT22;14509;47.992;7.848;2023-02-15T09:52:22;9.00;48.60
2439;DHT22;14509;47.992;7.848;2023-02-15T09:54:38;9.00;48.10
2439;DHT22;14509;47.992;7.848;2023-02-15T09:56:45;9.10;47.80
2439;DHT22;14509;47.992;7.848;2023-02-15T09:58:51;9.10;47.60
2439;DHT22;14509;47.992;7.848;2023-02-15T10:00:57;9.10;47.60
2439;DHT22;14509;47.992;7.848;2023-02-15T11:03:49;8.10;51.20
2439;DHT22;14509;47.992;7.848;2023-02-15T11:05:57;8.10;51.30
2439;DHT22;14509;47.992;7.848;2023-02-15T11:08:03;8.20;51.40
2439;DHT22;14509;47.992;7.848;2023-02-15T11:10:17;8.50;51.60
2439;DHT22;14509;47.992;7.848;2023-02-15T11:12:24;8.30;51.40
2439;DHT22;14509;47.992;7.848;2023-02-15T11:14:31;8.40;51.30
2439;DHT22;14509;47.992;7.848;2023-02-15T11:16:36;8.50;51.00
2439;DHT22;14509;47.992;7.848;2023-02-15T11:18:40;8.90;51.20
2439;DHT22;14509;47.992;7.848;2023-02-15T11:20:46;9.00;51.10
2439;DHT22;14509;47.992;7.848;2023-02-15T11:22:51;8.80;50.70
2439;DHT22;14509;47.992;7.848;2023-02-15T11:24:54;8.90;50.60
2439;DHT22;14509;47.992;7.848;2023-02-15T11:26:59;9.00;50.50
2439;DHT22;14509;47.992;7.848;2023-02-15T11:29:06;9.20;50.60
2439;DHT22;14509;47.992;7.848;2023-02-15T19:35:04;9.60;49.90
2439;DHT22;14509;47.992;7.848;2023-02-15T19:37:06;9.60;49.50
2439;DHT22;14509;47.992;7.848;2023-02-15T19:39:18;9.60;49.40
2439;DHT22;14509;47.992;7.848;2023-02-15T19:41:23;9.60;49.30
2439;DHT22;14509;47.992;7.848;2023-02-15T19:43:27;9.60;48.90
2439;DHT22;14509;47.992;7.848;2023-02-15T19:45:30;10.20;48.30
2439;DHT22;14509;47.992;7.848;2023-02-15T19:47:32;9.60;48.90
2439;DHT22;14509;47.992;7.848;2023-02-15T19:49:34;9.60;48.70
2439;DHT22;14509;47.992;7.848;2023-02-15T19:51:39;9.60;48.50
2439;DHT22;14509;47.992;7.848;2023-02-15T19:53:41;9.50;48.30
2439;DHT22;14509;47.992;7.848;2023-02-15T19:55:43;9.60;48.30
2439;DHT22;14509;47.992;7.848;2023-02-15T19:57:45;9.60;48.30
2439;DHT22;14509;47.992;7.848;2023-02-15T19:59:47;9.60;48.10
2439;DHT22;14509;47.992;7.848;2023-02-15T20:01:49;9.60;48.00
2439;DHT22;14509;47.992;7.848;2023-02-15T20:03:52;9.50;48.00
2439;DHT22;14509;47.992;7.848;2023-02-15T20:05:55;9.50;48.30
2439;DHT22;14509;47.992;7.848;2023-02-15T20:07:58;9.50;47.90
2439;DHT22;14509;47.992;7.848;2023-02-15T20:10:08;9.60;48.10
2439;DHT22;14509;47.992;7.848;2023-02-15T20:12:17;9.60;48.00
2439;DHT22;14509;47.992;7.848;2023-02-15T20:14:21;9.60;48.10
2439;DHT22;14509;47.992;7.848;2023-02-15T20:16:23;9.70;48.10
2439;DHT22;14509;47.992;7.848;2023-02-15T20:18:26;9.50;47.90
2439;DHT22;14509;47.992;7.848;2023-02-15T20:20:30;9.50;48.00
2439;DHT22;14509;47.992;7.848;2023-02-15T20:22:32;9.60;48.30
2439;DHT22;14509;47.992;7.848;2023-02-15T20:24:36;9.50;47.90
2439;DHT22;14509;47.992;7.848;2023-02-15T20:26:38;9.50;47.90
2439;DHT22;14509;47.992;7.848;2023-02-15T20:28:40;9.50;47.60
2439;DHT22;14509;47.992;7.848;2023-02-15T20:30:42;9.40;47.50
2439;DHT22;14509;47.992;7.848;2023-02-15T20:32:44;9.40;47.60
2439;DHT22;14509;47.992;7.848;2023-02-15T20:34:46;9.90;47.80
2439;DHT22;14509;47.992;7.848;2023-02-15T20:36:48;9.80;47.80
2439;DHT22;14509;47.992;7.848;2023-02-15T20:38:50;9.40;47.60
2439;DHT22;14509;47.992;7.848;2023-02-15T20:40:54;9.50;47.80
2439;DHT22;14509;47.992;7.848;2023-02-15T20:43:14;9.40;47.80
2439;DHT22;14509;47.992;7.848;2023-02-15T20:45:18;9.10;47.50
2439;DHT22;14509;47.992;7.848;2023-02-15T20:47:20;9.30;47.70
2439;DHT22;14509;47.992;7.848;2023-02-15T20:49:22;9.30;47.70
2439;DHT22;14509;47.992;7.848;2023-02-15T20:51:24;9.30;47.70
2439;DHT22;14509;47.992;7.848;2023-02-15T20:53:27;9.60;47.80
2439;DHT22;14509;47.992;7.848;2023-02-15T20:55:29;9.30;47.70
2439;DHT22;14509;47.992;7.848;2023-02-15T20:57:33;9.30;47.80
2439;DHT22;14509;47.992;7.848;2023-02-15T20:59:35;9.20;47.80
2439;DHT22;14509;47.992;7.848;2023-02-15T21:01:37;9.20;47.90
2439;DHT22;14509;47.992;7.848;2023-02-15T21:03:39;9.20;47.90
2439;DHT22;14509;47.992;7.848;2023-02-15T21:05:41;9.30;48.00
2439;DHT22;14509;47.992;7.848;2023-02-15T21:07:45;9.40;48.00
2439;DHT22;14509;47.992;7.848;2023-02-15T21:09:47;9.20;47.90
2439;DHT22;14509;47.992;7.848;2023-02-15T21:11:49;9.10;47.70
2439;DHT22;14509;47.992;7.848;2023-02-15T21:13:53;9.10;47.80
2439;DHT22;14509;47.992;7.848;2023-02-15T21:15:55;9.40;47.90
2439;DHT22;14509;47.992;7.848;2023-02-15T21:17:58;9.40;47.80
2439;DHT22;14509;47.992;7.848;2023-02-15T21:20:00;9.10;47.60
2439;DHT22;14509;47.992;7.848;2023-02-15T21:22:02;9.50;47.70
2439;DHT22;14509;47.992;7.848;2023-02-15T21:24:04;9.10;47.50
2439;DHT22;14509;47.992;7.848;2023-02-15T21:26:09;9.10;47.70
2439;DHT22;14509;47.992;7.848;2023-02-15T21:28:15;10.10;47.80
2439;DHT22;14509;47.992;7.848;2023-02-15T21:30:20;9.10;47.90
2439;DHT22;14509;47.992;7.848;2023-02-15T21:32:23;9.10;47.60
2439;DHT22;14509;47.992;7.848;2023-02-15T21:34:25;9.10;47.30
2439;DHT22;14509;47.992;7.848;2023-02-15T21:36:27;9.10;47.30
2439;DHT22;14509;47.992;7.848;2023-02-15T21:38:29;9.10;47.40
2439;DHT22;14509;47.992;7.848;2023-02-15T21:40:31;9.00;47.30
2439;DHT22;14509;47.992;7.848;2023-02-15T21:42:33;9.00;47.40
2439;DHT22;14509;47.992;7.848;2023-02-15T21:44:52;9.00;47.50
2439;DHT22;14509;47.992;7.848;2023-02-15T21:47:18;8.90;47.50
2439;DHT22;14509;47.992;7.848;2023-02-15T21:49:37;8.90;47.80
2439;DHT22;14509;47.992;7.848;2023-02-15T21:51:39;8.90;48.00
2439;DHT22;14509;47.992;7.848;2023-02-15T21:53:58;9.30;48.30
2439;DHT22;14509;47.992;7.848;2023-02-15T23:53:50;8.80;47.60
2439;DHT22;14509;47.992;7.848;2023-02-15T23:55:55;8.30;47.20
2439;DHT22;14509;47.992;7.848;2023-02-15T23:58:03;8.30;47.20
